sensor_id;sensor_type;location;lat;lon;timestamp;temperature;humidity
51950;DHT22;37974;53.218;6.640;2023-04-29T00:01:06;8.80;99.90
51950;DHT22;37974;53.218;6.640;2023-04-29T00:03:58;8.80;99.90
51950;DHT22;37974;53.218;6.640;2023-04-29T00:28:56;8.70;99.90
51950;DHT22;37974;53.218;6.640;2023-04-29T00:31:25;8.70;99.90
51950;DHT22;37974;53.218;6.640;2023-04-29T00:33:57;8.50;99.90
51950;DHT22;37974;53.218;6.640;2023-04-29T00:36:55;8.30;99.90
51950;DHT22;37974;53.218;6.640;2023-04-29T00:40:03;8.60;99.90
51950;DHT22;37974;53.218;6.640;2023-04-29T00:42:32;8.70;99.90
51950;DHT22;37974;53.218;6.640;2023-04-29T00:45:27;8.60;99.90
51950;DHT22;37974;53.218;6.640;2023-04-29T00:47:55;8.20;99.90
51950;DHT22;37974;53.218;6.640;2023-04-29T00:50:30;8.50;99.90
51950;DHT22;37974;53.218;6.640;2023-04-29T00:53:20;8.60;99.90
51950;DHT22;37974;53.218;6.640;2023-04-29T00:55:53;8.00;99.90
51950;DHT22;37974;53.218;6.640;2023-04-29T00:58:37;8.50;99.90
51950;DHT22;37974;53.218;6.640;2023-04-29T01:01:04;8.50;99.90
51950;DHT22;37974;53.218;6.640;2023-04-29T01:03:31;8.30;99.90
51950;DHT22;37974;53.218;6.640;2023-04-29T01:06:09;8.40;99.90
51950;DHT22;37974;53.218;6.640;2023-04-29T01:11:12;8.40;99.90
51950;DHT22;37974;53.218;6.640;2023-04-29T01:13:48;8.40;99.90
51950;DHT22;37974;53.218;6.640;2023-04-29T01:16:28;8.40;99.90
51950;DHT22;37974;53.218;6.640;2023-04-29T01:19:21;8.40;99.90
51950;DHT22;37974;53.218;6.640;2023-04-29T01:21:57;8.40;99.90
51950;DHT22;37974;53.218;6.640;2023-04-29T01:24:25;8.40;99.90
51950;DHT22;37974;53.218;6.640;2023-04-29T01:26:58;8.40;99.90
51950;DHT22;37974;53.218;6.640;2023-04-29T01:29:41;8.40;99.90
51950;DHT22;37974;53.218;6.640;2023-04-29T01:44:39;8.20;99.90
51950;DHT22;37974;53.218;6.640;2023-04-29T02:12:16;7.30;99.90
51950;DHT22;37974;53.218;6.640;2023-04-29T02:19:35;7.50;99.90
51950;DHT22;37974;53.218;6.640;2023-04-29T02:22:48;7.50;99.90
51950;DHT22;37974;53.218;6.640;2023-04-29T02:25:43;7.50;99.90
51950;DHT22;37974;53.218;6.640;2023-04-29T02:29:48;7.50;99.90
51950;DHT22;37974;53.218;6.640;2023-04-29T02:36:29;7.30;99.90
51950;DHT22;37974;53.218;6.640;2023-04-29T02:46:42;7.60;99.90
51950;DHT22;37974;53.218;6.640;2023-04-29T02:50:01;7.70;99.90
51950;DHT22;37974;53.218;6.640;2023-04-29T03:00:41;7.70;99.90
51950;DHT22;37974;53.218;6.640;2023-04-29T03:07:22;7.80;99.90
51950;DHT22;37974;53.218;6.640;2023-04-29T03:11:15;7.90;99.90
51950;DHT22;37974;53.218;6.640;2023-04-29T03:28:46;7.80;99.90
51950;DHT22;37974;53.218;6.640;2023-04-29T03:35:34;7.60;99.90
51950;DHT22;37974;53.218;6.640;2023-04-29T03:41:45;8.50;99.90
51950;DHT22;37974;53.218;6.640;2023-04-29T03:54:46;8.20;99.90
51950;DHT22;37974;53.218;6.640;2023-04-29T03:58:19;8.20;99.90
51950;DHT22;37974;53.218;6.640;2023-04-29T04:01:14;8.20;99.90
51950;DHT22;37974;53.218;6.640;2023-04-29T04:04:28;8.20;99.90
51950;DHT22;37974;53.218;6.640;2023-04-29T04:07:53;8.20;99.90
51950;DHT22;37974;53.218;6.640;2023-04-29T04:11:12;8.30;99.90
51950;DHT22;37974;53.218;6.640;2023-04-29T04:15:17;8.00;99.90
51950;DHT22;37974;53.218;6.640;2023-04-29T04:21:07;8.20;99.90
51950;DHT22;37974;53.218;6.640;2023-04-29T04:24:53;7.80;99.90
51950;DHT22;37974;53.218;6.640;2023-04-29T04:28:06;8.20;99.90
51950;DHT22;37974;53.218;6.640;2023-04-29T04:32:01;8.10;99.90
51950;DHT22;37974;53.218;6.640;2023-04-29T04:34:32;7.50;99.90
51950;DHT22;37974;53.218;6.640;2023-04-29T04:43:57;8.20;99.90
51950;DHT22;37974;53.218;6.640;2023-04-29T04:47:14;8.20;99.90
51950;DHT22;37974;53.218;6.640;2023-04-29T04:53:48;8.30;99.90
51950;DHT22;37974;53.218;6.640;2023-04-29T04:56:37;8.30;99.90
51950;DHT22;37974;53.218;6.640;2023-04-29T05:02:37;8.30;99.90
51950;DHT22;37974;53.218;6.640;2023-04-29T05:06:19;8.30;99.90
51950;DHT22;37974;53.218;6.640;2023-04-29T05:16:21;8.40;99.90
51950;DHT22;37974;53.218;6.640;2023-04-29T05:18:58;8.40;99.90
51950;DHT22;37974;53.218;6.640;2023-04-29T05:22:17;8.40;99.90
51950;DHT22;37974;53.218;6.640;2023-04-29T05:25:28;8.50;99.90
51950;DHT22;37974;53.218;6.640;2023-04-29T05:28:59;8.40;99.90
51950;DHT22;37974;53.218;6.640;2023-04-29T05:39:10;8.50;99.90
51950;DHT22;37974;53.218;6.640;2023-04-29T05:42:46;8.80;99.90
51950;DHT22;37974;53.218;6.640;2023-04-29T05:45:46;8.60;99.90
51950;DHT22;37974;53.218;6.640;2023-04-29T05:48:12;8.60;99.90
51950;DHT22;37974;53.218;6.640;2023-04-29T05:50:38;8.70;99.90
51950;DHT22;37974;53.218;6.640;2023-04-29T05:53:04;8.80;99.90
51950;DHT22;37974;53.218;6.640;2023-04-29T05:55:30;8.80;99.90
51950;DHT22;37974;53.218;6.640;2023-04-29T05:57:56;8.90;99.90
51950;DHT22;37974;53.218;6.640;2023-04-29T06:00:23;8.50;99.90
51950;DHT22;37974;53.218;6.640;2023-04-29T06:02:56;9.00;99.90
51950;DHT22;37974;53.218;6.640;2023-04-29T06:05:25;9.00;99.90
51950;DHT22;37974;53.218;6.640;2023-04-29T06:07:51;9.30;99.90
51950;DHT22;37974;53.218;6.640;2023-04-29T06:10:37;9.20;99.90
51950;DHT22;37974;53.218;6.640;2023-04-29T06:13:03;9.30;99.90
51950;DHT22;37974;53.218;6.640;2023-04-29T06:15:31;9.40;99.90
51950;DHT22;37974;53.218;6.640;2023-04-29T06:17:59;9.40;99.90
51950;DHT22;37974;53.218;6.640;2023-04-29T06:20:25;9.50;99.90
51950;DHT22;37974;53.218;6.640;2023-04-29T06:22:51;9.50;99.90
51950;DHT22;37974;53.218;6.640;2023-04-29T06:25:17;9.50;99.90
51950;DHT22;37974;53.218;6.640;2023-04-29T06:27:43;9.60;99.90
51950;DHT22;37974;53.218;6.640;2023-04-29T06:30:45;9.60;99.90
51950;DHT22;37974;53.218;6.640;2023-04-29T06:33:00;9.30;99.90
51950;DHT22;37974;53.218;6.640;2023-04-29T06:35:26;9.70;99.90
51950;DHT22;37974;53.218;6.640;2023-04-29T06:37:52;9.70;99.90
51950;DHT22;37974;53.218;6.640;2023-04-29T06:40:18;9.70;99.90
51950;DHT22;37974;53.218;6.640;2023-04-29T06:42:43;9.80;99.90
51950;DHT22;37974;53.218;6.640;2023-04-29T06:45:11;9.80;99.90
51950;DHT22;37974;53.218;6.640;2023-04-29T06:47:37;9.80;99.90
51950;DHT22;37974;53.218;6.640;2023-04-29T06:50:03;9.20;99.90
51950;DHT22;37974;53.218;6.640;2023-04-29T06:52:29;9.90;99.90
51950;DHT22;37974;53.218;6.640;2023-04-29T06:55:02;10.00;99.90
51950;DHT22;37974;53.218;6.640;2023-04-29T06:57:27;10.00;99.90
51950;DHT22;37974;53.218;6.640;2023-04-29T06:59:56;10.10;99.90
51950;DHT22;37974;53.218;6.640;2023-04-29T07:02:24;10.10;99.90
51950;DHT22;37974;53.218;6.640;2023-04-29T07:04:50;10.20;99.90
51950;DHT22;37974;53.218;6.640;2023-04-29T07:07:17;10.20;99.90
51950;DHT22;37974;53.218;6.640;2023-04-29T07:09:43;10.40;99.90
51950;DHT22;37974;53.218;6.640;2023-04-29T07:12:08;10.30;99.90
51950;DHT22;37974;53.218;6.640;2023-04-29T07:14:34;10.30;99.90
51950;DHT22;37974;53.218;6.640;2023-04-29T07:17:04;10.40;99.90
51950;DHT22;37974;53.218;6.640;2023-04-29T07:19:30;10.60;99.90
51950;DHT22;37974;53.218;6.640;2023-04-29T07:21:56;10.50;99.90
51950;DHT22;37974;53.218;6.640;2023-04-29T07:24:22;10.60;99.90
51950;DHT22;37974;53.218;6.640;2023-04-29T07:26:48;10.70;99.90
51950;DHT22;37974;53.218;6.640;2023-04-29T07:29:14;10.40;99.90
51950;DHT22;37974;53.218;6.640;2023-04-29T07:31:40;10.80;99.90
51950;DHT22;37974;53.218;6.640;2023-04-29T07:34:06;10.80;99.90
51950;DHT22;37974;53.218;6.640;2023-04-29T07:36:40;10.90;99.90
51950;DHT22;37974;53.218;6.640;2023-04-29T07:39:05;11.00;99.90
51950;DHT22;37974;53.218;6.640;2023-04-29T07:41:31;11.00;99.90
51950;DHT22;37974;53.218;6.640;2023-04-29T07:43:58;11.10;99.90
51950;DHT22;37974;53.218;6.640;2023-04-29T07:46:27;10.70;99.90
51950;DHT22;37974;53.218;6.640;2023-04-29T07:48:53;11.10;99.90
51950;DHT22;37974;53.218;6.640;2023-04-29T07:51:18;11.10;99.90
51950;DHT22;37974;53.218;6.640;2023-04-29T07:53:47;11.20;99.90
51950;DHT22;37974;53.218;6.640;2023-04-29T07:56:13;11.20;99.90
51950;DHT22;37974;53.218;6.640;2023-04-29T07:58:38;11.30;99.90
51950;DHT22;37974;53.218;6.640;2023-04-29T08:01:06;11.30;99.90
51950;DHT22;37974;53.218;6.640;2023-04-29T08:03:32;11.10;99.90
51950;DHT22;37974;53.218;6.640;2023-04-29T08:06:03;11.40;99.90
51950;DHT22;37974;53.218;6.640;2023-04-29T08:08:30;11.50;99.90
51950;DHT22;37974;53.218;6.640;2023-04-29T08:10:57;11.50;99.90
51950;DHT22;37974;53.218;6.640;2023-04-29T08:13:24;11.50;99.90
51950;DHT22;37974;53.218;6.640;2023-04-29T08:16:08;11.50;99.90
51950;DHT22;37974;53.218;6.640;2023-04-29T08:18:37;11.50;99.90
51950;DHT22;37974;53.218;6.640;2023-04-29T08:21:03;11.60;99.90
51950;DHT22;37974;53.218;6.640;2023-04-29T08:23:29;11.60;99.90
51950;DHT22;37974;53.218;6.640;2023-04-29T08:25:55;11.70;99.90
51950;DHT22;37974;53.218;6.640;2023-04-29T08:28:22;11.50;99.90
51950;DHT22;37974;53.218;6.640;2023-04-29T08:30:48;11.70;99.90
51950;DHT22;37974;53.218;6.640;2023-04-29T08:33:14;11.80;99.90
51950;DHT22;37974;53.218;6.640;2023-04-29T08:35:40;11.80;99.90
51950;DHT22;37974;53.218;6.640;2023-04-29T08:38:07;11.90;99.90
51950;DHT22;37974;53.218;6.640;2023-04-29T08:40:42;11.90;99.90
51950;DHT22;37974;53.218;6.640;2023-04-29T08:43:10;11.90;99.90
51950;DHT22;37974;53.218;6.640;2023-04-29T08:45:41;11.80;99.90
51950;DHT22;37974;53.218;6.640;2023-04-29T08:48:07;12.10;99.90
51950;DHT22;37974;53.218;6.640;2023-04-29T08:50:38;12.00;99.90
51950;DHT22;37974;53.218;6.640;2023-04-29T08:53:06;12.10;99.90
51950;DHT22;37974;53.218;6.640;2023-04-29T08:55:35;12.10;99.90
51950;DHT22;37974;53.218;6.640;2023-04-29T08:58:02;12.20;99.90
51950;DHT22;37974;53.218;6.640;2023-04-29T09:00:31;12.20;99.90
51950;DHT22;37974;53.218;6.640;2023-04-29T09:02:57;12.30;99.90
51950;DHT22;37974;53.218;6.640;2023-04-29T09:05:25;12.30;99.90
51950;DHT22;37974;53.218;6.640;2023-04-29T09:07:52;12.50;99.90
51950;DHT22;37974;53.218;6.640;2023-04-29T09:10:18;12.50;99.90
51950;DHT22;37974;53.218;6.640;2023-04-29T09:12:46;12.70;99.90
51950;DHT22;37974;53.218;6.640;2023-04-29T09:15:15;12.70;99.90
51950;DHT22;37974;53.218;6.640;2023-04-29T09:17:44;12.70;99.90
51950;DHT22;37974;53.218;6.640;2023-04-29T09:20:27;12.70;99.90
51950;DHT22;37974;53.218;6.640;2023-04-29T09:22:55;12.70;99.90
51950;DHT22;37974;53.218;6.640;2023-04-29T09:25:21;12.70;99.90
51950;DHT22;37974;53.218;6.640;2023-04-29T09:27:47;12.80;99.90
51950;DHT22;37974;53.218;6.640;2023-04-29T09:30:14;12.80;99.90
51950;DHT22;37974;53.218;6.640;2023-04-29T09:33:08;12.90;99.90
51950;DHT22;37974;53.218;6.640;2023-04-29T09:38:16;12.80;99.90
51950;DHT22;37974;53.218;6.640;2023-04-29T09:40:43;12.90;99.90
51950;DHT22;37974;53.218;6.640;2023-04-29T09:43:15;12.90;99.90
51950;DHT22;37974;53.218;6.640;2023-04-29T09:45:50;13.00;99.90
51950;DHT22;37974;53.218;6.640;2023-04-29T09:48:19;13.00;99.90
51950;DHT22;37974;53.218;6.640;2023-04-29T09:50:58;13.10;99.90
51950;DHT22;37974;53.218;6.640;2023-04-29T09:53:28;13.10;99.90
51950;DHT22;37974;53.218;6.640;2023-04-29T09:56:00;13.10;99.90
51950;DHT22;37974;53.218;6.640;2023-04-29T09:58:29;13.70;99.90
51950;DHT22;37974;53.218;6.640;2023-04-29T10:01:05;13.10;99.90
51950;DHT22;37974;53.218;6.640;2023-04-29T10:03:36;13.20;99.90
51950;DHT22;37974;53.218;6.640;2023-04-29T10:06:04;13.30;99.90
51950;DHT22;37974;53.218;6.640;2023-04-29T10:08:31;13.30;99.90
51950;DHT22;37974;53.218;6.640;2023-04-29T10:11:00;13.40;99.90
51950;DHT22;37974;53.218;6.640;2023-04-29T10:13:30;13.40;99.90
51950;DHT22;37974;53.218;6.640;2023-04-29T10:16:03;13.40;99.90
51950;DHT22;37974;53.218;6.640;2023-04-29T10:18:36;13.30;99.90
51950;DHT22;37974;53.218;6.640;2023-04-29T10:21:07;13.30;99.90
51950;DHT22;37974;53.218;6.640;2023-04-29T10:23:35;13.30;99.90
51950;DHT22;37974;53.218;6.640;2023-04-29T10:26:02;13.40;99.90
51950;DHT22;37974;53.218;6.640;2023-04-29T10:28:30;13.40;99.90
51950;DHT22;37974;53.218;6.640;2023-04-29T10:31:00;13.30;99.90
51950;DHT22;37974;53.218;6.640;2023-04-29T10:33:30;13.40;99.90
51950;DHT22;37974;53.218;6.640;2023-04-29T10:35:59;13.40;99.90
51950;DHT22;37974;53.218;6.640;2023-04-29T10:38:27;13.40;99.90
51950;DHT22;37974;53.218;6.640;2023-04-29T10:40:58;13.40;99.90
51950;DHT22;37974;53.218;6.640;2023-04-29T10:43:27;13.50;99.90
51950;DHT22;37974;53.218;6.640;2023-04-29T10:48:45;13.50;99.90
51950;DHT22;37974;53.218;6.640;2023-04-29T10:51:11;13.60;99.90
51950;DHT22;37974;53.218;6.640;2023-04-29T10:54:05;13.70;99.90
51950;DHT22;37974;53.218;6.640;2023-04-29T10:56:57;13.70;99.90
51950;DHT22;37974;53.218;6.640;2023-04-29T11:01:58;13.70;99.90
51950;DHT22;37974;53.218;6.640;2023-04-29T11:04:32;13.70;99.90
51950;DHT22;37974;53.218;6.640;2023-04-29T11:09:54;13.80;99.90
51950;DHT22;37974;53.218;6.640;2023-04-29T11:12:29;13.80;99.90
51950;DHT22;37974;53.218;6.640;2023-04-29T11:14:57;14.00;99.90
51950;DHT22;37974;53.218;6.640;2023-04-29T11:17:49;14.00;99.90
51950;DHT22;37974;53.218;6.640;2023-04-29T11:20:15;14.00;99.90
51950;DHT22;37974;53.218;6.640;2023-04-29T11:23:08;14.00;99.90
51950;DHT22;37974;53.218;6.640;2023-04-29T11:25:38;14.10;99.90
51950;DHT22;37974;53.218;6.640;2023-04-29T11:28:05;14.10;99.90
51950;DHT22;37974;53.218;6.640;2023-04-29T11:30:32;14.10;99.90
51950;DHT22;37974;53.218;6.640;2023-04-29T11:32:58;14.10;99.90
51950;DHT22;37974;53.218;6.640;2023-04-29T11:35:23;14.20;99.90
51950;DHT22;37974;53.218;6.640;2023-04-29T11:37:49;14.20;99.90
51950;DHT22;37974;53.218;6.640;2023-04-29T11:40:15;14.30;99.90
51950;DHT22;37974;53.218;6.640;2023-04-29T11:42:44;14.20;99.90
51950;DHT22;37974;53.218;6.640;2023-04-29T11:45:10;14.20;99.90
51950;DHT22;37974;53.218;6.640;2023-04-29T11:47:36;14.10;99.90
51950;DHT22;37974;53.218;6.640;2023-04-29T11:50:08;14.10;99.90
51950;DHT22;37974;53.218;6.640;2023-04-29T11:52:36;14.10;99.90
51950;DHT22;37974;53.218;6.640;2023-04-29T11:55:05;14.10;99.90
51950;DHT22;37974;53.218;6.640;2023-04-29T12:01:03;14.10;99.90
51950;DHT22;37974;53.218;6.640;2023-04-29T12:03:32;14.10;99.90
51950;DHT22;37974;53.218;6.640;2023-04-29T12:06:29;14.00;99.90
51950;DHT22;37974;53.218;6.640;2023-04-29T12:09:18;14.20;99.90
51950;DHT22;37974;53.218;6.640;2023-04-29T12:11:48;14.00;99.90
51950;DHT22;37974;53.218;6.640;2023-04-29T12:14:25;14.00;99.90
51950;DHT22;37974;53.218;6.640;2023-04-29T12:16:55;14.00;99.90
51950;DHT22;37974;53.218;6.640;2023-04-29T12:19:41;14.10;99.90
51950;DHT22;37974;53.218;6.640;2023-04-29T12:22:21;14.10;99.90
51950;DHT22;37974;53.218;6.640;2023-04-29T12:31:32;14.10;99.90
51950;DHT22;37974;53.218;6.640;2023-04-29T12:33:59;14.10;99.90
51950;DHT22;37974;53.218;6.640;2023-04-29T12:36:25;14.10;99.90
51950;DHT22;37974;53.218;6.640;2023-04-29T12:38:51;14.00;99.00
51950;DHT22;37974;53.218;6.640;2023-04-29T12:41:19;14.00;98.90
51950;DHT22;37974;53.218;6.640;2023-04-29T12:43:45;14.00;99.20
51950;DHT22;37974;53.218;6.640;2023-04-29T12:46:14;14.10;99.80
51950;DHT22;37974;53.218;6.640;2023-04-29T12:48:41;14.10;99.90
51950;DHT22;37974;53.218;6.640;2023-04-29T12:51:12;14.10;99.90
51950;DHT22;37974;53.218;6.640;2023-04-29T12:53:38;14.20;99.70
51950;DHT22;37974;53.218;6.640;2023-04-29T12:56:05;14.30;99.90
51950;DHT22;37974;53.218;6.640;2023-04-29T12:58:34;14.40;99.90
51950;DHT22;37974;53.218;6.640;2023-04-29T13:01:00;14.50;99.90
51950;DHT22;37974;53.218;6.640;2023-04-29T13:03:32;14.50;99.90
51950;DHT22;37974;53.218;6.640;2023-04-29T13:05:58;14.40;99.90
51950;DHT22;37974;53.218;6.640;2023-04-29T13:08:24;14.40;99.90
51950;DHT22;37974;53.218;6.640;2023-04-29T13:10:49;14.50;99.90
51950;DHT22;37974;53.218;6.640;2023-04-29T13:13:16;14.40;99.90
51950;DHT22;37974;53.218;6.640;2023-04-29T13:15:41;14.30;99.90
51950;DHT22;37974;53.218;6.640;2023-04-29T13:18:07;14.30;99.90
51950;DHT22;37974;53.218;6.640;2023-04-29T13:20:33;14.30;99.90
51950;DHT22;37974;53.218;6.640;2023-04-29T13:22:59;14.40;99.90
51950;DHT22;37974;53.218;6.640;2023-04-29T13:25:25;14.40;99.90
51950;DHT22;37974;53.218;6.640;2023-04-29T13:27:51;14.40;99.90
51950;DHT22;37974;53.218;6.640;2023-04-29T13:30:17;14.30;99.90
51950;DHT22;37974;53.218;6.640;2023-04-29T13:32:43;14.20;99.90
51950;DHT22;37974;53.218;6.640;2023-04-29T13:35:09;14.00;99.90
51950;DHT22;37974;53.218;6.640;2023-04-29T13:37:35;14.00;99.90
51950;DHT22;37974;53.218;6.640;2023-04-29T13:40:02;13.90;99.90
51950;DHT22;37974;53.218;6.640;2023-04-29T13:42:29;14.00;99.90
51950;DHT22;37974;53.218;6.640;2023-04-29T13:44:59;13.90;99.90
51950;DHT22;37974;53.218;6.640;2023-04-29T13:47:49;14.00;99.90
51950;DHT22;37974;53.218;6.640;2023-04-29T13:50:16;13.70;99.90
51950;DHT22;37974;53.218;6.640;2023-04-29T13:52:57;13.80;99.90
51950;DHT22;37974;53.218;6.640;2023-04-29T13:55:46;13.80;99.90
51950;DHT22;37974;53.218;6.640;2023-04-29T13:58:12;13.50;99.90
51950;DHT22;37974;53.218;6.640;2023-04-29T14:00:38;13.90;99.90
51950;DHT22;37974;53.218;6.640;2023-04-29T14:03:03;14.00;99.90
51950;DHT22;37974;53.218;6.640;2023-04-29T14:05:32;14.20;99.90
51950;DHT22;37974;53.218;6.640;2023-04-29T14:08:03;14.30;99.90
51950;DHT22;37974;53.218;6.640;2023-04-29T14:11:09;14.30;99.90
51950;DHT22;37974;53.218;6.640;2023-04-29T14:13:29;14.40;99.90
51950;DHT22;37974;53.218;6.640;2023-04-29T14:15:56;14.40;99.90
51950;DHT22;37974;53.218;6.640;2023-04-29T14:18:23;14.30;99.90
51950;DHT22;37974;53.218;6.640;2023-04-29T14:20:51;14.20;99.90
51950;DHT22;37974;53.218;6.640;2023-04-29T14:23:21;14.10;99.90
51950;DHT22;37974;53.218;6.640;2023-04-29T14:25:47;13.80;99.90
51950;DHT22;37974;53.218;6.640;2023-04-29T14:28:13;13.70;99.90
51950;DHT22;37974;53.218;6.640;2023-04-29T14:30:39;13.70;99.90
51950;DHT22;37974;53.218;6.640;2023-04-29T14:33:06;13.70;99.90
51950;DHT22;37974;53.218;6.640;2023-04-29T14:35:32;13.60;99.90
51950;DHT22;37974;53.218;6.640;2023-04-29T14:37:58;13.30;99.90
51950;DHT22;37974;53.218;6.640;2023-04-29T14:40:24;13.20;99.90
51950;DHT22;37974;53.218;6.640;2023-04-29T14:42:55;13.20;99.90
51950;DHT22;37974;53.218;6.640;2023-04-29T14:45:21;13.20;99.90
51950;DHT22;37974;53.218;6.640;2023-04-29T14:47:47;13.20;99.90
51950;DHT22;37974;53.218;6.640;2023-04-29T14:50:13;13.20;99.90
51950;DHT22;37974;53.218;6.640;2023-04-29T14:52:39;13.20;99.90
51950;DHT22;37974;53.218;6.640;2023-04-29T14:55:05;13.20;99.90
51950;DHT22;37974;53.218;6.640;2023-04-29T14:57:30;13.10;99.90
51950;DHT22;37974;53.218;6.640;2023-04-29T14:59:56;13.10;99.90
51950;DHT22;37974;53.218;6.640;2023-04-29T15:02:24;13.00;99.90
51950;DHT22;37974;53.218;6.640;2023-04-29T15:04:51;13.10;99.90
51950;DHT22;37974;53.218;6.640;2023-04-29T15:07:17;13.20;99.90
51950;DHT22;37974;53.218;6.640;2023-04-29T15:09:43;13.30;99.90
51950;DHT22;37974;53.218;6.640;2023-04-29T15:12:09;13.20;99.90
51950;DHT22;37974;53.218;6.640;2023-04-29T15:14:35;13.20;99.90
51950;DHT22;37974;53.218;6.640;2023-04-29T15:17:00;13.20;99.90
51950;DHT22;37974;53.218;6.640;2023-04-29T15:19:26;13.30;99.90
51950;DHT22;37974;53.218;6.640;2023-04-29T15:21:52;13.20;99.90
51950;DHT22;37974;53.218;6.640;2023-04-29T15:24:18;13.10;99.90
51950;DHT22;37974;53.218;6.640;2023-04-29T15:26:44;13.00;99.90
51950;DHT22;37974;53.218;6.640;2023-04-29T15:29:14;12.90;99.90
51950;DHT22;37974;53.218;6.640;2023-04-29T15:31:40;13.00;99.90
51950;DHT22;37974;53.218;6.640;2023-04-29T15:34:06;13.10;99.90
51950;DHT22;37974;53.218;6.640;2023-04-29T15:36:32;13.20;99.90
51950;DHT22;37974;53.218;6.640;2023-04-29T15:38:58;13.10;99.90
51950;DHT22;37974;53.218;6.640;2023-04-29T15:41:24;13.10;99.90
51950;DHT22;37974;53.218;6.640;2023-04-29T15:43:53;13.00;99.90
51950;DHT22;37974;53.218;6.640;2023-04-29T15:46:20;12.90;99.90
51950;DHT22;37974;53.218;6.640;2023-04-29T15:48:46;12.70;99.90
51950;DHT22;37974;53.218;6.640;2023-04-29T15:51:12;12.60;99.90
51950;DHT22;37974;53.218;6.640;2023-04-29T15:53:40;12.50;99.90
51950;DHT22;37974;53.218;6.640;2023-04-29T15:56:11;12.40;99.90
51950;DHT22;37974;53.218;6.640;2023-04-29T15:58:37;12.20;99.90
51950;DHT22;37974;53.218;6.640;2023-04-29T16:01:03;12.10;99.90
51950;DHT22;37974;53.218;6.640;2023-04-29T16:03:29;12.10;99.90
51950;DHT22;37974;53.218;6.640;2023-04-29T16:05:55;12.00;99.90
51950;DHT22;37974;53.218;6.640;2023-04-29T16:08:21;11.90;99.90
51950;DHT22;37974;53.218;6.640;2023-04-29T16:10:47;11.80;99.90
51950;DHT22;37974;53.218;6.640;2023-04-29T16:13:33;11.70;99.90
51950;DHT22;37974;53.218;6.640;2023-04-29T16:16:02;11.60;99.90
51950;DHT22;37974;53.218;6.640;2023-04-29T16:18:35;11.60;99.90
51950;DHT22;37974;53.218;6.640;2023-04-29T16:21:01;11.60;99.90
51950;DHT22;37974;53.218;6.640;2023-04-29T16:23:27;11.50;99.90
51950;DHT22;37974;53.218;6.640;2023-04-29T16:25:53;11.50;99.90
51950;DHT22;37974;53.218;6.640;2023-04-29T16:28:21;11.40;99.90
51950;DHT22;37974;53.218;6.640;2023-04-29T16:30:48;11.40;99.90
51950;DHT22;37974;53.218;6.640;2023-04-29T16:33:15;11.40;99.90
51950;DHT22;37974;53.218;6.640;2023-04-29T16:35:41;11.40;99.90
51950;DHT22;37974;53.218;6.640;2023-04-29T16:38:06;11.30;99.90
51950;DHT22;37974;53.218;6.640;2023-04-29T16:40:32;11.30;99.90
51950;DHT22;37974;53.218;6.640;2023-04-29T16:42:58;11.30;99.90
51950;DHT22;37974;53.218;6.640;2023-04-29T16:45:24;11.20;99.90
51950;DHT22;37974;53.218;6.640;2023-04-29T16:47:51;11.20;99.90
51950;DHT22;37974;53.218;6.640;2023-04-29T16:50:17;11.10;99.90
51950;DHT22;37974;53.218;6.640;2023-04-29T16:52:43;11.10;99.90
51950;DHT22;37974;53.218;6.640;2023-04-29T16:55:11;11.00;99.90
51950;DHT22;37974;53.218;6.640;2023-04-29T16:57:37;10.90;99.90
51950;DHT22;37974;53.218;6.640;2023-04-29T17:00:03;10.90;99.90
51950;DHT22;37974;53.218;6.640;2023-04-29T17:02:36;10.90;99.90
51950;DHT22;37974;53.218;6.640;2023-04-29T17:05:06;10.90;99.90
51950;DHT22;37974;53.218;6.640;2023-04-29T17:07:33;10.80;99.90
51950;DHT22;37974;53.218;6.640;2023-04-29T17:10:05;10.90;99.90
51950;DHT22;37974;53.218;6.640;2023-04-29T17:12:31;10.90;99.90
51950;DHT22;37974;53.218;6.640;2023-04-29T17:15:00;10.90;99.90
51950;DHT22;37974;53.218;6.640;2023-04-29T17:17:26;11.00;99.90
51950;DHT22;37974;53.218;6.640;2023-04-29T17:19:52;11.00;99.90
51950;DHT22;37974;53.218;6.640;2023-04-29T17:22:19;11.10;99.90
51950;DHT22;37974;53.218;6.640;2023-04-29T17:24:45;11.10;99.90
51950;DHT22;37974;53.218;6.640;2023-04-29T17:27:11;11.10;99.90
51950;DHT22;37974;53.218;6.640;2023-04-29T17:29:38;11.10;99.90
51950;DHT22;37974;53.218;6.640;2023-04-29T17:32:04;11.10;99.90
51950;DHT22;37974;53.218;6.640;2023-04-29T17:34:36;11.10;99.90
51950;DHT22;37974;53.218;6.640;2023-04-29T17:37:03;11.00;99.90
51950;DHT22;37974;53.218;6.640;2023-04-29T17:39:29;11.00;99.90
51950;DHT22;37974;53.218;6.640;2023-04-29T17:41:55;11.00;99.90
51950;DHT22;37974;53.218;6.640;2023-04-29T17:44:21;10.90;99.90
51950;DHT22;37974;53.218;6.640;2023-04-29T17:46:47;10.90;99.90
51950;DHT22;37974;53.218;6.640;2023-04-29T17:49:13;10.90;99.90
51950;DHT22;37974;53.218;6.640;2023-04-29T17:51:38;10.90;99.90
51950;DHT22;37974;53.218;6.640;2023-04-29T17:54:05;10.80;99.90
51950;DHT22;37974;53.218;6.640;2023-04-29T17:56:32;10.80;99.90
51950;DHT22;37974;53.218;6.640;2023-04-29T17:59:00;10.80;99.90
51950;DHT22;37974;53.218;6.640;2023-04-29T18:01:26;10.80;99.90
51950;DHT22;37974;53.218;6.640;2023-04-29T18:03:52;10.70;99.90
51950;DHT22;37974;53.218;6.640;2023-04-29T18:06:18;10.80;99.90
51950;DHT22;37974;53.218;6.640;2023-04-29T18:08:44;10.90;99.90
51950;DHT22;37974;53.218;6.640;2023-04-29T18:11:10;10.80;99.90
51950;DHT22;37974;53.218;6.640;2023-04-29T18:13:38;10.80;99.90
51950;DHT22;37974;53.218;6.640;2023-04-29T18:16:05;10.70;99.90
51950;DHT22;37974;53.218;6.640;2023-04-29T18:18:32;10.70;99.90
51950;DHT22;37974;53.218;6.640;2023-04-29T18:20:57;10.50;99.90
51950;DHT22;37974;53.218;6.640;2023-04-29T18:23:23;10.40;99.90
51950;DHT22;37974;53.218;6.640;2023-04-29T18:25:49;10.40;99.90
51950;DHT22;37974;53.218;6.640;2023-04-29T18:28:15;10.30;99.90
51950;DHT22;37974;53.218;6.640;2023-04-29T18:30:41;10.20;99.90
51950;DHT22;37974;53.218;6.640;2023-04-29T18:33:06;10.10;99.90
51950;DHT22;37974;53.218;6.640;2023-04-29T18:35:32;10.00;99.90
51950;DHT22;37974;53.218;6.640;2023-04-29T18:37:58;9.90;99.90
51950;DHT22;37974;53.218;6.640;2023-04-29T18:40:24;9.80;99.90
51950;DHT22;37974;53.218;6.640;2023-04-29T18:42:50;9.70;99.90
51950;DHT22;37974;53.218;6.640;2023-04-29T18:45:15;9.60;99.90
51950;DHT22;37974;53.218;6.640;2023-04-29T18:47:41;9.60;99.90
51950;DHT22;37974;53.218;6.640;2023-04-29T18:50:07;9.50;99.90
51950;DHT22;37974;53.218;6.640;2023-04-29T18:52:33;9.40;99.90
51950;DHT22;37974;53.218;6.640;2023-04-29T18:54:59;9.30;99.90
51950;DHT22;37974;53.218;6.640;2023-04-29T18:57:25;9.30;99.90
51950;DHT22;37974;53.218;6.640;2023-04-29T18:59:51;9.20;99.90
51950;DHT22;37974;53.218;6.640;2023-04-29T19:02:18;9.20;99.90
51950;DHT22;37974;53.218;6.640;2023-04-29T19:04:44;9.10;99.90
51950;DHT22;37974;53.218;6.640;2023-04-29T19:07:10;9.10;99.90